sensor_id;sensor_type;location;lat;lon;timestamp;pressure;altitude;pressure_sealevel;temperature;humidity
7586;BME280;12459;42.646;23.292;2024-03-08T00:14:39;93374.63;;;5.42;100.00
7586;BME280;12459;42.646;23.292;2024-03-08T00:29:41;93549.69;;;6.42;100.00
7586;BME280;12459;42.646;23.292;2024-03-08T00:44:43;93517.03;;;6.62;100.00
7586;BME280;12459;42.646;23.292;2024-03-08T00:59:45;93638.03;;;6.79;100.00
7586;BME280;12459;42.646;23.292;2024-03-08T01:14:47;93277.34;;;4.99;100.00
7586;BME280;12459;42.646;23.292;2024-03-08T01:29:48;93534.84;;;6.33;100.00
7586;BME280;12459;42.646;23.292;2024-03-08T01:44:50;93459.13;;;6.02;100.00
7586;BME280;12459;42.646;23.292;2024-03-08T01:59:53;93551.66;;;6.73;100.00
7586;BME280;12459;42.646;23.292;2024-03-08T02:14:57;93267.78;;;4.80;100.00
7586;BME280;12459;42.646;23.292;2024-03-08T02:29:59;93402.34;;;5.49;100.00
7586;BME280;12459;42.646;23.292;2024-03-08T02:45:01;93572.78;;;6.13;100.00
7586;BME280;12459;42.646;23.292;2024-03-08T03:00:03;93473.88;;;5.86;100.00
7586;BME280;12459;42.646;23.292;2024-03-08T03:15:06;93553.16;;;5.66;100.00
7586;BME280;12459;42.646;23.292;2024-03-08T03:30:09;93375.31;;;3.64;100.00
7586;BME280;12459;42.646;23.292;2024-03-08T03:45:23;93513.72;;;4.21;100.00
7586;BME280;12459;42.646;23.292;2024-03-08T04:00:25;93120.50;;;1.85;100.00
7586;BME280;12459;42.646;23.292;2024-03-08T04:15:29;93512.03;;;4.87;100.00
7586;BME280;12459;42.646;23.292;2024-03-08T04:30:30;93520.44;;;4.96;100.00
7586;BME280;12459;42.646;23.292;2024-03-08T04:45:32;93442.75;;;4.52;100.00
7586;BME280;12459;42.646;23.292;2024-03-08T05:00:34;93695.78;;;5.95;100.00
7586;BME280;12459;42.646;23.292;2024-03-08T05:15:36;93685.00;;;5.77;100.00
7586;BME280;12459;42.646;23.292;2024-03-08T05:30:40;93414.41;;;4.15;100.00
7586;BME280;12459;42.646;23.292;2024-03-08T05:45:42;93544.06;;;5.12;100.00
7586;BME280;12459;42.646;23.292;2024-03-08T06:00:44;93566.13;;;5.20;100.00
7586;BME280;12459;42.646;23.292;2024-03-08T06:15:50;93617.19;;;5.47;100.00
7586;BME280;12459;42.646;23.292;2024-03-08T06:30:52;93754.06;;;6.18;100.00
7586;BME280;12459;42.646;23.292;2024-03-08T06:45:54;93692.53;;;5.68;100.00
7586;BME280;12459;42.646;23.292;2024-03-08T07:00:56;93597.94;;;5.12;100.00
7586;BME280;12459;42.646;23.292;2024-03-08T07:16:02;93826.34;;;6.82;100.00
7586;BME280;12459;42.646;23.292;2024-03-08T07:31:04;93788.50;;;5.97;100.00
7586;BME280;12459;42.646;23.292;2024-03-08T07:46:18;93564.56;;;4.67;100.00
7586;BME280;12459;42.646;23.292;2024-03-08T08:01:20;93832.09;;;6.88;99.68
7586;BME280;12459;42.646;23.292;2024-03-08T08:16:25;93815.72;;;6.89;99.58
7586;BME280;12459;42.646;23.292;2024-03-08T08:31:27;93587.41;;;4.75;100.00
7586;BME280;12459;42.646;23.292;2024-03-08T08:46:29;93850.78;;;6.98;100.00
7586;BME280;12459;42.646;23.292;2024-03-08T09:01:31;93795.41;;;7.43;99.12
7586;BME280;12459;42.646;23.292;2024-03-08T09:16:33;93714.19;;;7.09;97.28
7586;BME280;12459;42.646;23.292;2024-03-08T09:31:35;93722.13;;;6.87;92.84
7586;BME280;12459;42.646;23.292;2024-03-08T09:46:37;93516.03;;;5.84;91.61
7586;BME280;12459;42.646;23.292;2024-03-08T10:01:39;93598.09;;;7.04;86.82
7586;BME280;12459;42.646;23.292;2024-03-08T10:16:41;93723.03;;;7.30;87.90
7586;BME280;12459;42.646;23.292;2024-03-08T10:31:43;93784.41;;;8.76;82.92
7586;BME280;12459;42.646;23.292;2024-03-08T10:47:09;93585.19;;;7.45;77.85
7586;BME280;12459;42.646;23.292;2024-03-08T11:02:13;93787.22;;;9.42;78.01
7586;BME280;12459;42.646;23.292;2024-03-08T11:17:49;93706.91;;;8.83;75.62
7586;BME280;12459;42.646;23.292;2024-03-08T11:32:47;93509.72;;;7.69;76.09
7586;BME280;12459;42.646;23.292;2024-03-08T11:47:49;93832.75;;;10.60;74.46
7586;BME280;12459;42.646;23.292;2024-03-08T12:03:06;93848.97;;;10.39;74.65
7586;BME280;12459;42.646;23.292;2024-03-08T12:18:09;93746.56;;;9.69;70.43
7586;BME280;12459;42.646;23.292;2024-03-08T12:33:12;93604.94;;;9.47;70.37
7586;BME280;12459;42.646;23.292;2024-03-08T12:48:14;93463.31;;;8.29;68.13
7586;BME280;12459;42.646;23.292;2024-03-08T13:03:19;93682.59;;;9.85;69.04
7586;BME280;12459;42.646;23.292;2024-03-08T13:18:20;93421.97;;;7.93;71.37
7586;BME280;12459;42.646;23.292;2024-03-08T13:33:22;93638.53;;;8.89;72.17
7586;BME280;12459;42.646;23.292;2024-03-08T13:48:26;93624.88;;;9.36;67.62
7586;BME280;12459;42.646;23.292;2024-03-08T14:03:28;93478.84;;;8.56;68.37
7586;BME280;12459;42.646;23.292;2024-03-08T14:18:29;93458.50;;;8.07;66.50
7586;BME280;12459;42.646;23.292;2024-03-08T14:33:31;93403.38;;;7.79;69.36
7586;BME280;12459;42.646;23.292;2024-03-08T14:48:33;93680.19;;;9.49;69.45
7586;BME280;12459;42.646;23.292;2024-03-08T15:03:36;93568.13;;;8.55;70.98
7586;BME280;12459;42.646;23.292;2024-03-08T15:18:38;93573.50;;;8.48;71.77
7586;BME280;12459;42.646;23.292;2024-03-08T15:33:41;93783.41;;;9.36;72.03
7586;BME280;12459;42.646;23.292;2024-03-08T15:48:46;93667.34;;;8.50;72.41
7586;BME280;12459;42.646;23.292;2024-03-08T16:03:50;93242.03;;;4.84;72.24
7586;BME280;12459;42.646;23.292;2024-03-08T16:18:52;93681.91;;;7.39;75.05
7586;BME280;12459;42.646;23.292;2024-03-08T16:33:54;93550.00;;;6.22;77.17
7586;BME280;12459;42.646;23.292;2024-03-08T16:48:56;93685.59;;;6.84;78.67
7586;BME280;12459;42.646;23.292;2024-03-08T17:03:58;93655.84;;;6.61;78.96
7586;BME280;12459;42.646;23.292;2024-03-08T17:19:02;93881.25;;;8.02;78.19
7586;BME280;12459;42.646;23.292;2024-03-08T17:34:06;93876.59;;;7.63;80.93
7586;BME280;12459;42.646;23.292;2024-03-08T17:49:08;93743.66;;;5.95;84.51
7586;BME280;12459;42.646;23.292;2024-03-08T18:04:10;93686.34;;;6.05;86.17
7586;BME280;12459;42.646;23.292;2024-03-08T18:19:12;93716.19;;;6.35;88.49
7586;BME280;12459;42.646;23.292;2024-03-08T18:34:21;93462.84;;;3.41;91.91
7586;BME280;12459;42.646;23.292;2024-03-08T18:49:23;93506.97;;;4.27;90.22
7586;BME280;12459;42.646;23.292;2024-03-08T19:04:25;93719.31;;;5.08;94.33
7586;BME280;12459;42.646;23.292;2024-03-08T19:19:27;93913.78;;;6.69;93.93
7586;BME280;12459;42.646;23.292;2024-03-08T19:34:29;93895.09;;;6.18;96.30
7586;BME280;12459;42.646;23.292;2024-03-08T19:49:31;93835.03;;;6.17;93.08
7586;BME280;12459;42.646;23.292;2024-03-08T20:04:34;93619.47;;;4.26;95.63
7586;BME280;12459;42.646;23.292;2024-03-08T20:19:36;93816.78;;;5.38;99.89
7586;BME280;12459;42.646;23.292;2024-03-08T20:34:38;93149.63;;;0.87;99.93
7586;BME280;12459;42.646;23.292;2024-03-08T20:49:40;93979.56;;;5.08;100.00
7586;BME280;12459;42.646;23.292;2024-03-08T21:04:42;93726.22;;;3.02;100.00
7586;BME280;12459;42.646;23.292;2024-03-08T21:19:45;93902.22;;;4.11;100.00
7586;BME280;12459;42.646;23.292;2024-03-08T21:34:47;93880.66;;;3.90;100.00
7586;BME280;12459;42.646;23.292;2024-03-08T21:49:49;93668.59;;;2.49;100.00
7586;BME280;12459;42.646;23.292;2024-03-08T22:04:52;93658.09;;;1.79;100.00
7586;BME280;12459;42.646;23.292;2024-03-08T22:19:54;93439.69;;;0.52;100.00
7586;BME280;12459;42.646;23.292;2024-03-08T22:34:56;93877.59;;;3.07;100.00
7586;BME280;12459;42.646;23.292;2024-03-08T22:49:59;93583.84;;;2.04;100.00
7586;BME280;12459;42.646;23.292;2024-03-08T23:05:01;93633.97;;;1.81;100.00
7586;BME280;12459;42.646;23.292;2024-03-08T23:20:03;93798.25;;;3.11;100.00
7586;BME280;12459;42.646;23.292;2024-03-08T23:35:08;93728.59;;;3.07;100.00
7586;BME280;12459;42.646;23.292;2024-03-08T23:50:13;93897.69;;;5.14;100.00
